createdAt,value
2024-01-05T00:03:33.922Z,1.97
2024-01-05T00:08:36.837Z,2.10
2024-01-05T00:13:41.037Z,2.20
2024-01-05T00:18:44.052Z,2.40
2024-01-05T00:23:46.872Z,2.37
2024-01-05T00:28:51.867Z,2.07
2024-01-05T00:33:54.771Z,1.83
2024-01-05T00:38:57.724Z,1.40
2024-01-05T00:44:01.863Z,2.30
2024-01-05T00:49:04.706Z,1.90
2024-01-05T00:54:07.574Z,1.90
2024-01-05T00:59:13.700Z,2.10
2024-01-05T01:04:16.855Z,2.20
2024-01-05T01:09:19.849Z,2.37
2024-01-05T01:14:24.057Z,1.93
2024-01-05T01:19:27.003Z,2.43
2024-01-05T01:24:29.984Z,2.63
2024-01-05T01:29:34.222Z,2.33
2024-01-05T01:34:37.163Z,2.20
2024-01-05T01:39:39.962Z,2.53
2024-01-05T01:44:44.085Z,2.47
2024-01-05T01:54:49.935Z,2.33
2024-01-05T01:59:54.382Z,2.77
2024-01-05T02:04:58.640Z,2.70
2024-01-05T02:10:01.419Z,2.73
2024-01-05T02:15:08.120Z,2.40
2024-01-05T02:20:11.219Z,2.37
2024-01-05T02:25:15.391Z,3.00
2024-01-05T02:30:20.744Z,2.70
2024-01-05T02:35:23.653Z,2.53
2024-01-05T02:40:27.767Z,3.10
2024-01-05T02:45:30.598Z,3.23
2024-01-05T02:50:33.425Z,2.70
2024-01-05T02:55:37.606Z,3.07
2024-01-05T03:00:40.687Z,3.40
2024-01-05T03:05:43.716Z,2.77
2024-01-05T03:10:48.001Z,3.20
2024-01-05T03:15:50.928Z,2.97
2024-01-05T03:20:53.810Z,2.83
2024-01-05T03:25:58.164Z,2.83
2024-01-05T03:31:01.031Z,2.97
2024-01-05T03:36:03.970Z,2.80
2024-01-05T03:41:08.198Z,2.77
2024-01-05T03:46:12.553Z,3.23
2024-01-05T03:51:15.392Z,3.07
2024-01-05T03:56:19.604Z,2.47
2024-01-05T04:01:22.397Z,2.60
2024-01-05T04:06:25.318Z,2.87
2024-01-05T04:11:31.540Z,3.13
2024-01-05T04:16:34.377Z,3.23
2024-01-05T04:21:37.426Z,2.77
2024-01-05T04:26:42.100Z,2.63
2024-01-05T04:31:45.176Z,2.87
2024-01-05T04:36:48.313Z,2.80
2024-01-05T04:41:52.734Z,2.63
2024-01-05T04:46:55.668Z,2.80
2024-01-05T04:51:59.191Z,2.87
2024-01-05T04:57:03.773Z,2.07
2024-01-05T05:02:06.688Z,3.23
2024-01-05T05:07:09.619Z,3.40
2024-01-05T05:12:14.045Z,2.80
2024-01-05T05:17:17.091Z,3.17
2024-01-05T05:22:19.926Z,2.50
2024-01-05T05:27:24.221Z,2.87
2024-01-05T05:32:27.200Z,3.23
2024-01-05T05:37:30.093Z,2.90
2024-01-05T05:42:34.373Z,2.87
2024-01-05T05:47:37.408Z,3.07
2024-01-05T05:52:40.428Z,2.47
2024-01-05T05:57:44.914Z,4.67
2024-01-05T06:02:47.811Z,3.53
2024-01-05T06:07:51.940Z,2.53
2024-01-05T06:12:56.202Z,2.73
2024-01-05T06:17:59.398Z,2.43
2024-01-05T06:23:02.492Z,2.90
2024-01-05T06:28:07.498Z,1.90
2024-01-05T06:33:10.497Z,1.93
2024-01-05T06:38:13.374Z,2.30
2024-01-05T06:43:17.483Z,1.93
2024-01-05T06:48:20.573Z,2.03
2024-01-05T06:53:23.563Z,1.80
2024-01-05T06:58:28.805Z,2.37
2024-01-05T07:03:31.649Z,1.70
2024-01-05T07:08:34.476Z,2.23
2024-01-05T07:13:38.741Z,1.93
2024-01-05T07:18:41.913Z,1.73
2024-01-05T07:23:45.138Z,1.77
2024-01-05T07:28:49.376Z,1.80
2024-01-05T07:33:52.922Z,1.87
2024-01-05T07:39:00.056Z,1.80
2024-01-05T07:44:04.396Z,1.87
2024-01-05T07:49:07.461Z,1.80
2024-01-05T07:54:10.487Z,1.70
2024-01-05T07:59:14.802Z,1.60
2024-01-05T08:04:17.742Z,1.60
2024-01-05T08:09:20.676Z,1.53
2024-01-05T08:14:24.918Z,1.53
2024-01-05T08:19:27.780Z,1.63
2024-01-05T08:24:31.122Z,4.50
2024-01-05T08:29:36.061Z,2.08
2024-01-05T08:34:38.926Z,1.90
2024-01-05T08:39:43.239Z,1.88
2024-01-05T08:44:47.437Z,1.95
2024-01-05T08:49:50.439Z,2.13
2024-01-05T08:54:53.725Z,2.70
2024-01-05T08:59:57.950Z,1.98
2024-01-05T09:05:01.814Z,1.52
2024-01-05T09:10:04.906Z,1.25
2024-01-05T09:15:10.492Z,1.30
2024-01-05T09:20:14.424Z,1.00
2024-01-05T09:25:17.829Z,0.88
2024-01-05T09:30:22.137Z,1.10
2024-01-05T09:35:26.219Z,1.50
2024-01-05T09:40:29.149Z,1.55
2024-01-05T09:45:34.155Z,1.23
2024-01-05T09:50:37.431Z,1.35
2024-01-05T09:55:40.421Z,1.27
2024-01-05T10:00:46.507Z,1.40
2024-01-05T10:05:50.129Z,1.38
2024-01-05T10:10:57.931Z,1.17
2024-01-05T10:16:04.028Z,1.17
2024-01-05T10:21:11.437Z,1.95
2024-01-05T10:26:18.155Z,2.00
2024-01-05T10:31:22.522Z,1.15
2024-01-05T10:36:26.633Z,1.13
2024-01-05T10:41:30.585Z,1.08
2024-01-05T10:46:36.146Z,0.90
2024-01-05T10:51:39.870Z,0.93
2024-01-05T10:56:43.594Z,1.00
2024-01-05T11:01:48.215Z,1.10
2024-01-05T11:06:51.518Z,1.05
2024-01-05T11:12:06.957Z,1.20
2024-01-05T11:17:45.377Z,1.35
2024-01-05T11:22:50.000Z,1.13
2024-01-05T11:27:53.000Z,0.75
2024-01-05T11:32:57.487Z,1.38
2024-01-05T11:38:00.494Z,1.20
2024-01-05T11:43:35.223Z,1.13
2024-01-05T11:48:52.663Z,0.98
2024-01-05T11:53:55.741Z,1.40
2024-01-05T11:58:59.129Z,0.90
2024-01-05T12:04:03.604Z,1.52
2024-01-05T12:09:08.289Z,1.40
2024-01-05T12:14:11.192Z,1.20
2024-01-05T12:19:23.731Z,1.10
2024-01-05T12:24:27.485Z,1.30
2024-01-05T12:29:30.459Z,1.23
2024-01-05T12:34:36.163Z,1.15
2024-01-05T12:39:39.049Z,1.00
2024-01-05T12:44:43.484Z,0.90
2024-01-05T12:49:48.050Z,1.20
2024-01-05T12:54:50.964Z,1.08
2024-01-05T12:59:53.978Z,1.30
2024-01-05T13:04:58.150Z,1.15
2024-01-05T13:10:00.919Z,1.02
2024-01-05T13:15:05.130Z,1.00
2024-01-05T13:20:10.809Z,1.00
2024-01-05T13:25:13.680Z,1.20
2024-01-05T13:30:21.716Z,1.08
2024-01-05T13:35:26.015Z,0.95
2024-01-05T13:40:29.046Z,1.20
2024-01-05T13:45:31.999Z,1.50
2024-01-05T13:50:36.194Z,1.20
2024-01-05T13:55:39.047Z,0.95
2024-01-05T14:00:42.260Z,0.93
2024-01-05T14:05:46.551Z,1.02
2024-01-05T14:10:49.455Z,1.33
2024-01-05T14:15:52.323Z,1.10
2024-01-05T14:20:56.525Z,1.10
2024-01-05T14:25:59.424Z,1.20
2024-01-05T14:31:02.436Z,1.35
2024-01-05T14:36:07.254Z,1.48
2024-01-05T14:41:10.260Z,1.33
2024-01-05T14:46:13.251Z,1.10
2024-01-05T14:51:18.088Z,1.13
2024-01-05T14:56:21.079Z,1.33
2024-01-05T15:01:24.000Z,1.58
2024-01-05T15:06:28.350Z,1.30
2024-01-05T15:11:32.881Z,1.20
2024-01-05T15:16:40.933Z,1.25
2024-01-05T15:21:45.139Z,1.20
2024-01-05T15:26:48.662Z,1.40
2024-01-05T15:31:53.313Z,1.55
2024-01-05T15:36:57.604Z,1.10
2024-01-05T15:42:01.042Z,1.30
2024-01-05T15:47:04.796Z,1.27
2024-01-05T15:52:09.635Z,1.00
2024-01-05T15:57:16.876Z,1.00
2024-01-05T16:02:19.893Z,0.90
2024-01-05T16:07:24.299Z,1.35
2024-01-05T16:12:27.284Z,1.13
2024-01-05T16:17:35.316Z,1.50
2024-01-05T16:22:39.510Z,1.17
2024-01-05T16:27:42.340Z,1.05
2024-01-05T16:32:46.679Z,1.23
2024-01-05T16:37:50.861Z,1.13
2024-01-05T16:42:53.694Z,1.10
2024-01-05T16:47:56.520Z,1.17
2024-01-05T16:53:00.707Z,1.10
2024-01-05T16:58:03.935Z,1.10
2024-01-05T17:03:07.646Z,1.52
2024-01-05T17:08:12.010Z,1.38
2024-01-05T17:13:14.809Z,1.23
2024-01-05T17:18:19.371Z,1.67
2024-01-05T17:23:24.350Z,2.08
2024-01-05T17:28:28.811Z,1.60
2024-01-05T17:33:31.722Z,1.40
2024-01-05T17:38:35.980Z,1.30
2024-01-05T17:43:41.997Z,1.60
2024-01-05T17:48:45.028Z,1.45
2024-01-05T17:53:49.642Z,1.50
2024-01-05T17:58:52.557Z,1.77
2024-01-05T18:03:55.458Z,1.23
2024-01-05T18:09:01.299Z,1.60
2024-01-05T18:14:04.650Z,1.48
2024-01-05T18:19:09.614Z,1.60
2024-01-05T18:24:14.081Z,1.45
2024-01-05T18:29:25.209Z,1.40
2024-01-05T18:34:32.239Z,1.50
2024-01-05T18:39:37.822Z,1.60
2024-01-05T18:44:42.795Z,1.70
2024-01-05T18:49:45.739Z,1.90
2024-01-05T18:54:50.187Z,1.50
2024-01-05T18:59:53.143Z,1.67
2024-01-05T19:04:56.055Z,1.70
2024-01-05T19:10:00.315Z,1.88
2024-01-05T19:15:03.195Z,2.47
2024-01-05T19:20:07.417Z,3.50
2024-01-05T19:25:11.595Z,4.75
2024-01-05T19:30:19.091Z,4.00
2024-01-05T19:35:22.154Z,3.40
2024-01-05T19:40:26.505Z,2.47
2024-01-05T19:45:29.455Z,2.10
2024-01-05T19:50:32.327Z,2.45
2024-01-05T19:55:36.788Z,2.60
2024-01-05T20:00:39.628Z,2.28
2024-01-05T20:05:43.531Z,2.15
2024-01-05T20:10:48.091Z,1.98
2024-01-05T20:15:50.865Z,2.50
2024-01-05T20:20:53.691Z,2.10
2024-01-05T20:25:58.026Z,2.30
2024-01-05T20:31:01.272Z,2.50
2024-01-05T20:36:04.464Z,1.85
2024-01-05T20:41:08.693Z,1.87
2024-01-05T20:46:11.593Z,2.20
2024-01-05T20:51:19.236Z,1.90
2024-01-05T20:56:23.487Z,1.50
2024-01-05T21:01:26.488Z,1.90
2024-01-05T21:06:29.411Z,2.30
2024-01-05T21:11:34.958Z,1.93
2024-01-05T21:16:41.496Z,1.77
2024-01-05T21:21:45.139Z,2.10
2024-01-05T21:26:49.553Z,1.97
2024-01-05T21:31:53.326Z,2.25
2024-01-05T21:36:56.214Z,2.42
2024-01-05T21:42:00.385Z,2.00
2024-01-05T21:47:03.216Z,1.97
2024-01-05T21:52:07.225Z,1.73
2024-01-05T21:57:11.708Z,1.90
2024-01-05T22:02:14.701Z,2.10
2024-01-05T22:07:17.571Z,2.15
2024-01-05T22:12:21.754Z,1.90
2024-01-05T22:17:26.316Z,2.40
2024-01-05T22:22:29.205Z,2.17
2024-01-05T22:27:33.511Z,2.10
2024-01-05T22:32:36.352Z,2.17
2024-01-05T22:37:39.441Z,2.67
2024-01-05T22:42:43.732Z,2.90
2024-01-05T22:47:50.502Z,2.33
2024-01-05T22:52:53.457Z,2.20
2024-01-05T22:57:57.632Z,2.17
2024-01-05T23:03:00.427Z,2.53
2024-01-05T23:08:04.360Z,3.83
2024-01-05T23:13:09.550Z,4.00
2024-01-05T23:18:12.781Z,4.70
2024-01-05T23:23:15.794Z,2.57
2024-01-05T23:28:20.009Z,2.50
2024-01-05T23:33:22.941Z,2.43
2024-01-05T23:38:26.724Z,2.13
2024-01-05T23:43:30.875Z,2.13
2024-01-05T23:48:33.799Z,4.37
2024-01-05T23:53:37.090Z,4.30
2024-01-05T23:58:41.414Z,3.57
